Time;durP1;ratioP1;P1;durP2;ratioP2;P2;SDS_P1;SDS_P2;PMS_P1;PMS_P2;Temp;Humidity;BMP_temperature;BMP_pressure;BME280_temperature;BME280_humidity;BME280_pressure;Samples;Min_cycle;Max_cycle;Signal;HPM_P1;HPM_P2
2023/05/28 00:01:37;;;;;;;11.70;6.80;;;;;;;6.66;68.83;101346.77;104036;277;39704;-73
2023/05/28 00:04:19;;;;;;;10.70;6.00;;;;;;;6.60;68.94;101345.77;104058;277;38839;-72
2023/05/28 00:06:56;;;;;;;14.50;6.60;;;;;;;6.56;69.13;101346.83;104046;277;38730;-71
2023/05/28 00:09:32;;;;;;;14.10;6.70;;;;;;;6.54;69.29;101345.63;104022;277;38519;-71
2023/05/28 00:12:07;;;;;;;10.10;6.70;;;;;;;6.52;69.45;101347.20;104021;277;38230;-71
2023/05/28 00:14:42;;;;;;;10.60;7.10;;;;;;;6.49;69.63;101343.05;103994;277;38243;-72
2023/05/28 00:17:16;;;;;;;11.10;7.70;;;;;;;6.46;69.76;101342.91;103997;277;38956;-70
2023/05/28 00:19:52;;;;;;;9.30;7.00;;;;;;;6.41;69.85;101345.17;103962;277;40160;-72
2023/05/28 00:22:30;;;;;;;9.80;6.60;;;;;;;6.37;69.99;101343.29;103936;277;38499;-71
2023/05/28 00:25:07;;;;;;;9.60;6.90;;;;;;;6.32;70.24;101339.67;103944;277;38256;-72
2023/05/28 00:27:43;;;;;;;14.90;7.50;;;;;;;6.29;70.22;101337.62;104003;277;38731;-70
2023/05/28 00:30:23;;;;;;;12.90;6.90;;;;;;;6.28;70.50;101339.87;103923;277;38496;-72
2023/05/28 00:32:58;;;;;;;11.60;7.00;;;;;;;6.25;70.49;101336.60;103916;277;38287;-73
2023/05/28 00:35:34;;;;;;;13.10;7.20;;;;;;;6.23;70.60;101334.88;103908;277;38528;-73
2023/05/28 00:38:08;;;;;;;10.00;7.60;;;;;;;6.19;70.64;101332.98;103780;277;39595;-73
2023/05/28 00:40:50;;;;;;;15.20;7.60;;;;;;;6.14;70.65;101336.82;103725;277;175452;-73
2023/05/28 00:43:25;;;;;;;15.10;8.30;;;;;;;6.10;70.79;101336.48;103940;277;39667;-73
2023/05/28 00:46:05;;;;;;;12.40;7.70;;;;;;;6.06;71.04;101337.37;103958;277;38261;-71
2023/05/28 00:48:41;;;;;;;13.70;7.70;;;;;;;6.03;71.09;101335.11;104054;277;39698;-71
2023/05/28 00:51:22;;;;;;;11.30;7.60;;;;;;;6.00;71.33;101331.34;104008;277;39662;-72
2023/05/28 00:54:02;;;;;;;11.20;7.10;;;;;;;5.97;71.42;101332.04;104012;277;38224;-72
2023/05/28 00:56:40;;;;;;;12.60;7.50;;;;;;;5.91;71.43;101333.25;103971;277;38290;-72
2023/05/28 00:59:17;;;;;;;11.10;7.80;;;;;;;5.88;71.50;101334.98;103969;277;38454;-73
2023/05/28 01:01:51;;;;;;;12.70;7.30;;;;;;;5.85;71.66;101331.02;103937;277;38680;-71
2023/05/28 01:04:29;;;;;;;12.30;7.70;;;;;;;5.84;71.74;101327.55;103859;277;39408;-72
2023/05/28 01:07:04;;;;;;;11.30;7.60;;;;;;;5.82;71.95;101323.40;103781;279;38759;-74
2023/05/28 01:09:38;;;;;;;15.70;9.00;;;;;;;5.79;72.17;101327.22;103870;277;39283;-72
2023/05/28 01:12:12;;;;;;;12.70;8.90;;;;;;;5.73;72.29;101321.17;103863;277;39390;-71
2023/05/28 01:14:47;;;;;;;13.40;9.00;;;;;;;5.70;72.60;101322.05;103903;277;38964;-71
2023/05/28 01:17:21;;;;;;;16.00;8.60;;;;;;;5.67;72.70;101324.13;103901;277;39459;-71
2023/05/28 01:19:56;;;;;;;11.80;7.80;;;;;;;5.65;72.89;101321.55;103884;277;38795;-71
2023/05/28 01:22:33;;;;;;;10.10;6.50;;;;;;;5.63;72.96;101322.75;103865;277;38903;-72
2023/05/28 01:25:12;;;;;;;11.10;6.30;;;;;;;5.60;73.34;101321.20;103924;277;38356;-72
2023/05/28 01:27:52;;;;;;;9.80;6.00;;;;;;;5.59;73.37;101313.77;103941;277;38332;-69
2023/05/28 01:30:29;;;;;;;9.60;5.50;;;;;;;5.56;73.37;101310.14;103897;277;38610;-71
2023/05/28 01:33:05;;;;;;;10.80;5.80;;;;;;;5.54;73.59;101306.86;103989;277;38474;-71
2023/05/28 01:35:42;;;;;;;7.30;5.00;;;;;;;5.54;73.46;101306.33;103916;278;40143;-72
2023/05/28 01:38:21;;;;;;;8.00;5.80;;;;;;;5.51;73.57;101303.92;103881;277;40063;-71
2023/05/28 01:40:58;;;;;;;8.80;5.80;;;;;;;5.49;73.78;101301.67;103827;277;39146;-72
2023/05/28 01:43:32;;;;;;;11.30;6.60;;;;;;;5.46;73.71;101300.48;103891;277;39509;-71
2023/05/28 01:46:06;;;;;;;13.00;6.60;;;;;;;5.43;73.81;101297.88;103944;277;38409;-71
2023/05/28 01:48:40;;;;;;;12.20;6.90;;;;;;;5.42;73.64;101298.05;103883;277;39562;-72
2023/05/28 01:51:19;;;;;;;8.70;7.10;;;;;;;5.44;73.63;101294.59;103869;277;38996;-72
2023/05/28 01:53:53;;;;;;;11.70;7.60;;;;;;;5.44;73.77;101294.23;103281;277;912373;-72
2023/05/28 01:56:27;;;;;;;13.80;8.60;;;;;;;5.42;73.58;101295.28;103893;277;38275;-71
2023/05/28 01:59:02;;;;;;;10.70;8.40;;;;;;;5.41;73.56;101298.58;103879;277;38102;-71
2023/05/28 02:01:36;;;;;;;10.80;8.10;;;;;;;5.36;73.50;101296.68;103874;277;40098;-70
2023/05/28 02:04:10;;;;;;;14.80;8.30;;;;;;;5.32;73.53;101292.71;103902;277;38208;-72
2023/05/28 02:06:47;;;;;;;11.00;8.20;;;;;;;5.27;73.77;101292.71;103946;277;38695;-72
2023/05/28 02:09:25;;;;;;;14.00;9.70;;;;;;;5.24;73.88;101286.32;103959;277;38677;-73
2023/05/28 02:12:03;;;;;;;11.60;8.70;;;;;;;5.23;73.92;101286.50;104047;277;38399;-69
2023/05/28 02:14:41;;;;;;;15.40;9.70;;;;;;;5.19;73.96;101287.19;103839;279;38363;-70
2023/05/28 02:17:28;;;;;;;13.80;9.80;;;;;;;5.14;74.21;101285.12;104018;277;39353;-71
2023/05/28 02:20:09;;;;;;;13.80;10.20;;;;;;;5.11;74.35;101280.80;103936;277;39716;-71
2023/05/28 02:22:48;;;;;;;17.20;10.80;;;;;;;5.09;74.53;101280.28;103918;277;38309;-71
2023/05/28 02:25:25;;;;;;;17.60;11.10;;;;;;;5.08;74.61;101278.03;103934;277;39130;-71
2023/05/28 02:28:03;;;;;;;13.90;10.10;;;;;;;5.06;74.66;101279.08;103892;277;38432;-72
2023/05/28 02:30:40;;;;;;;16.70;11.30;;;;;;;5.03;74.90;101279.24;103869;277;39436;-73
2023/05/28 02:33:15;;;;;;;16.80;10.50;;;;;;;5.00;74.87;101278.56;103911;277;38494;-72
2023/05/28 02:35:49;;;;;;;13.50;10.50;;;;;;;4.97;74.89;101280.80;103932;277;39718;-72
2023/05/28 02:38:24;;;;;;;15.20;10.50;;;;;;;4.95;75.05;101281.34;103917;277;39661;-71
2023/05/28 02:40:58;;;;;;;14.40;10.00;;;;;;;4.94;74.95;101282.71;103913;277;38327;-71
2023/05/28 02:43:33;;;;;;;17.50;11.30;;;;;;;4.92;75.06;101280.98;103914;277;39189;-71
2023/05/28 02:46:07;;;;;;;12.80;10.20;;;;;;;4.92;75.25;101281.67;103947;277;38701;-73
2023/05/28 02:48:41;;;;;;;14.20;9.90;;;;;;;4.90;75.31;101280.81;103842;277;175543;-70
2023/05/28 02:51:18;;;;;;;13.80;9.80;;;;;;;4.89;75.39;101281.50;103960;277;38601;-72
2023/05/28 02:53:53;;;;;;;15.50;10.20;;;;;;;4.89;75.49;101282.89;103926;277;39686;-71
2023/05/28 02:56:32;;;;;;;17.10;10.30;;;;;;;4.91;75.66;101284.61;103961;277;38307;-71
2023/05/28 02:59:09;;;;;;;15.00;9.90;;;;;;;4.94;75.60;101282.55;103971;266;39610;-71
2023/05/28 03:01:44;;;;;;;13.70;10.30;;;;;;;4.97;75.84;101285.13;103984;277;39635;-71
2023/05/28 03:04:27;;;;;;;15.30;10.00;;;;;;;4.99;76.05;101283.92;103963;277;38264;-71
2023/05/28 03:07:01;;;;;;;14.10;9.80;;;;;;;5.02;76.11;101286.16;103921;277;39724;-69
2023/05/28 03:09:38;;;;;;;13.30;9.10;;;;;;;5.07;76.10;101285.30;103929;277;38400;-70
2023/05/28 03:12:17;;;;;;;13.40;9.20;;;;;;;5.12;76.11;101284.61;103924;277;38735;-72
2023/05/28 03:14:51;;;;;;;13.30;9.00;;;;;;;5.16;76.10;101280.79;103946;277;39382;-70
2023/05/28 03:17:25;;;;;;;13.50;9.40;;;;;;;5.22;76.30;101282.35;103904;277;40320;-69
2023/05/28 03:19:59;;;;;;;15.50;10.10;;;;;;;5.28;76.46;101285.81;103985;277;39744;-71
2023/05/28 03:22:33;;;;;;;13.40;9.40;;;;;;;5.33;76.34;101286.13;103734;277;38979;-70
2023/05/28 03:25:10;;;;;;;12.10;9.00;;;;;;;5.41;76.29;101288.20;103991;277;38822;-72
2023/05/28 03:27:46;;;;;;;13.30;9.20;;;;;;;5.51;76.35;101294.05;104007;277;38792;-71
2023/05/28 03:30:23;;;;;;;14.60;9.50;;;;;;;5.61;76.46;101292.64;103828;277;38785;-71
2023/05/28 03:33:00;;;;;;;15.30;9.80;;;;;;;5.72;76.30;101288.80;103848;279;38257;-69
2023/05/28 03:35:38;;;;;;;14.10;9.30;;;;;;;5.86;76.28;101285.63;103999;277;38265;-70
2023/05/28 03:38:17;;;;;;;15.50;9.20;;;;;;;6.03;76.18;101289.23;103943;277;38254;-68
2023/05/28 03:40:57;;;;;;;14.50;9.60;;;;;;;6.44;76.36;101296.80;104000;277;39747;-72
2023/05/28 03:43:31;;;;;;;13.70;8.80;;;;;;;7.22;76.81;101292.20;103952;266;39651;-71
2023/05/28 03:46:10;;;;;;;14.20;9.30;;;;;;;8.14;77.11;101294.11;103962;277;39387;-71
2023/05/28 03:48:47;;;;;;;14.70;9.80;;;;;;;9.23;75.98;101290.17;103970;277;39393;-71
2023/05/28 03:51:21;;;;;;;13.50;9.00;;;;;;;10.09;73.14;101288.86;103939;277;39104;-70
2023/05/28 03:53:55;;;;;;;12.90;9.10;;;;;;;10.91;70.77;101287.90;102794;277;904772;-72
2023/05/28 03:56:33;;;;;;;12.90;8.90;;;;;;;11.58;68.27;101284.91;103993;277;38847;-72
2023/05/28 03:59:07;;;;;;;12.80;8.90;;;;;;;12.14;65.72;101284.74;103943;277;38818;-72
2023/05/28 04:01:41;;;;;;;10.20;8.70;;;;;;;12.70;64.19;101285.29;103922;277;38517;-71
2023/05/28 04:04:36;;;;;;;11.70;8.60;;;;;;;13.19;61.93;101282.27;103929;277;39194;-71
2023/05/28 04:07:09;;;;;;;10.70;8.20;;;;;;;13.51;60.64;101284.85;103925;277;38793;-72
2023/05/28 04:09:44;;;;;;;11.10;8.30;;;;;;;13.88;59.64;101280.70;103985;277;38342;-71
2023/05/28 04:12:20;;;;;;;12.00;8.60;;;;;;;14.25;58.22;101279.45;104008;277;38514;-71
2023/05/28 04:14:56;;;;;;;12.40;7.70;;;;;;;14.46;56.56;101284.95;104011;277;38227;-72
2023/05/28 04:17:30;;;;;;;12.70;7.90;;;;;;;14.48;55.46;101278.02;103977;277;39151;-72
2023/05/28 04:20:06;;;;;;;9.40;6.30;;;;;;;14.36;55.10;101276.20;103994;277;38355;-72
2023/05/28 04:22:40;;;;;;;9.10;5.70;;;;;;;14.26;54.31;101275.20;104012;277;38349;-71
2023/05/28 04:25:14;;;;;;;11.00;7.30;;;;;;;14.03;54.21;101276.09;103997;277;38493;-73
2023/05/28 04:27:50;;;;;;;13.00;9.40;;;;;;;13.83;54.02;101274.40;104005;277;38247;-72
2023/05/28 04:30:26;;;;;;;10.10;6.50;;;;;;;13.71;53.90;101273.95;103982;277;39027;-69
2023/05/28 04:33:06;;;;;;;10.20;5.90;;;;;;;13.59;53.53;101275.28;103874;277;38557;-71
2023/05/28 04:35:41;;;;;;;7.60;4.90;;;;;;;13.52;53.40;101273.05;104016;277;38824;-71
2023/05/28 04:38:18;;;;;;;10.10;5.40;;;;;;;13.51;53.42;101271.70;103946;277;39904;-72
2023/05/28 04:40:53;;;;;;;9.80;5.40;;;;;;;13.49;52.71;101271.77;103880;277;172302;-73
2023/05/28 04:43:30;;;;;;;8.00;5.60;;;;;;;13.46;52.75;101270.11;103933;277;38408;-73
2023/05/28 04:46:08;;;;;;;7.10;4.50;;;;;;;13.47;52.79;101266.05;103940;277;38604;-72
2023/05/28 04:48:45;;;;;;;12.70;5.40;;;;;;;13.48;52.49;101265.67;103941;277;38506;-72
2023/05/28 04:51:20;;;;;;;9.50;5.10;;;;;;;13.48;52.72;101261.10;103857;277;39341;-72
2023/05/28 04:53:56;;;;;;;7.40;4.20;;;;;;;13.68;52.40;101263.35;103890;277;38626;-72
2023/05/28 04:56:32;;;;;;;9.00;4.80;;;;;;;14.32;52.64;101258.98;103931;277;38269;-72
2023/05/28 04:59:09;;;;;;;10.90;4.80;;;;;;;15.10;52.15;101255.83;103893;277;39700;-72
2023/05/28 05:01:43;;;;;;;9.60;4.80;;;;;;;16.01;50.12;101255.50;103937;277;38834;-73
2023/05/28 05:04:18;;;;;;;8.60;4.40;;;;;;;16.95;48.91;101251.63;103930;277;39488;-72
2023/05/28 05:06:52;;;;;;;8.20;4.20;;;;;;;17.77;46.59;101248.43;103955;277;39662;-71
2023/05/28 05:09:27;;;;;;;5.60;3.70;;;;;;;18.63;44.81;101247.75;103989;277;38794;-72
2023/05/28 05:12:03;;;;;;;7.10;3.80;;;;;;;19.44;42.78;101250.15;103991;277;39434;-74
2023/05/28 05:14:37;;;;;;;6.70;3.80;;;;;;;20.19;40.80;101252.45;103936;277;39839;-73
2023/05/28 05:17:12;;;;;;;7.30;3.90;;;;;;;20.81;38.91;101253.33;103966;277;38814;-73
2023/05/28 05:19:46;;;;;;;5.60;3.80;;;;;;;21.24;37.70;101250.05;103937;277;38601;-74
2023/05/28 05:22:23;;;;;;;7.70;3.90;;;;;;;21.57;36.94;101244.23;103962;277;38503;-72
2023/05/28 05:24:59;;;;;;;5.70;4.00;;;;;;;22.17;35.33;101243.55;103938;277;39987;-73
2023/05/28 05:27:38;;;;;;;6.30;3.40;;;;;;;22.61;34.19;101245.66;103919;277;38275;-73
2023/05/28 05:30:14;;;;;;;5.50;3.40;;;;;;;22.99;34.42;101245.10;103865;277;38260;-72
2023/05/28 05:32:50;;;;;;;5.70;3.40;;;;;;;23.47;32.95;101246.30;103906;277;39645;-72
2023/05/28 05:35:26;;;;;;;5.50;3.20;;;;;;;24.02;31.76;101246.10;103895;277;38694;-72
2023/05/28 05:38:05;;;;;;;4.60;2.90;;;;;;;24.43;31.01;101240.61;103910;277;38238;-73
2023/05/28 05:40:42;;;;;;;5.20;3.40;;;;;;;24.80;29.95;101236.52;103943;277;39581;-73
2023/05/28 05:43:19;;;;;;;4.30;2.90;;;;;;;25.09;28.69;101235.08;103891;277;38308;-71
2023/05/28 05:45:59;;;;;;;4.70;2.70;;;;;;;25.38;27.59;101227.96;103897;277;38239;-73
2023/05/28 05:48:35;;;;;;;4.60;2.70;;;;;;;25.38;26.96;101229.37;103863;277;39645;-73
2023/05/28 05:51:16;;;;;;;5.70;2.30;;;;;;;25.49;26.93;101227.52;103912;277;39441;-72
2023/05/28 05:53:51;;;;;;;6.80;2.60;;;;;;;25.48;26.95;101231.21;103942;277;39458;-72
2023/05/28 05:56:25;;;;;;;4.70;2.60;;;;;;;25.51;27.02;101228.21;103958;277;38702;-73
2023/05/28 05:59:00;;;;;;;4.70;2.50;;;;;;;25.53;26.63;101226.70;103938;277;38363;-74
2023/05/28 06:01:36;;;;;;;3.20;2.20;;;;;;;25.72;26.08;101229.64;103963;277;38928;-72
2023/05/28 06:04:16;;;;;;;5.40;2.40;;;;;;;25.89;25.72;101233.55;103946;277;39158;-73
2023/05/28 06:06:50;;;;;;;5.80;2.40;;;;;;;26.05;24.99;101234.25;103811;277;187557;-74
2023/05/28 06:09:30;;;;;;;6.10;2.40;;;;;;;26.26;24.80;101226.79;103948;277;38504;-73
2023/05/28 06:12:07;;;;;;;5.70;2.20;;;;;;;26.54;24.44;101227.88;103823;277;38332;-74
2023/05/28 06:14:42;;;;;;;4.20;2.10;;;;;;;26.71;24.29;101229.10;103803;277;39599;-73
2023/05/28 06:17:16;;;;;;;4.90;2.20;;;;;;;26.99;24.20;101225.45;103919;277;38279;-72
2023/05/28 06:19:51;;;;;;;4.60;2.20;;;;;;;27.13;23.53;101230.09;103891;277;38231;-71
2023/05/28 06:22:26;;;;;;;3.70;2.10;;;;;;;27.29;23.30;101229.27;103873;277;38282;-73
2023/05/28 06:25:01;;;;;;;5.90;2.00;;;;;;;27.45;23.01;101232.45;103932;277;39460;-72
2023/05/28 06:27:47;;;;;;;5.60;2.20;;;;;;;27.74;23.07;101233.19;103747;266;38957;-72
2023/05/28 06:30:24;;;;;;;;;;;;;;;27.84;22.61;101234.75;103821;277;174263;-71
2023/05/28 06:32:59;;;;;;;4.10;1.70;;;;;;;27.76;22.42;101234.42;103945;277;38485;-74
2023/05/28 06:35:38;;;;;;;4.40;2.20;;;;;;;27.79;22.09;101229.89;103952;277;39652;-73
2023/05/28 06:38:15;;;;;;;4.20;1.70;;;;;;;27.92;22.57;101230.55;103976;277;38553;-74
2023/05/28 06:40:51;;;;;;;2.80;1.70;;;;;;;28.13;22.83;101227.61;103972;277;39450;-74
2023/05/28 06:43:29;;;;;;;3.30;1.50;;;;;;;28.11;20.98;101222.73;103975;277;38512;-72
2023/05/28 06:46:10;;;;;;;3.20;1.40;;;;;;;28.10;21.15;101218.95;103938;277;38559;-71
2023/05/28 06:48:49;;;;;;;3.50;1.30;;;;;;;28.25;20.43;101214.90;103956;277;38242;-71
2023/05/28 06:51:23;;;;;;;3.90;1.10;;;;;;;28.46;20.46;101218.38;103944;277;38251;-73
2023/05/28 06:53:57;;;;;;;3.40;1.30;;;;;;;28.60;19.92;101216.83;104001;277;37977;-72
2023/05/28 06:56:37;;;;;;;6.40;1.30;;;;;;;28.66;20.07;101216.36;103900;277;174164;-72
2023/05/28 06:59:15;;;;;;;2.70;1.00;;;;;;;28.69;19.62;101213.94;103963;277;38284;-72
2023/05/28 07:01:53;;;;;;;3.80;1.30;;;;;;;28.67;19.39;101213.02;103971;277;38528;-73
2023/05/28 07:04:27;;;;;;;2.80;1.00;;;;;;;28.71;19.98;101211.16;103930;277;38240;-71
2023/05/28 07:07:01;;;;;;;2.60;1.30;;;;;;;28.91;19.60;101205.76;103955;277;38271;-73
2023/05/28 07:09:35;;;;;;;3.50;1.10;;;;;;;29.04;19.43;101206.79;103807;277;173936;-73
2023/05/28 07:12:09;;;;;;;5.70;1.40;;;;;;;29.01;19.40;101207.04;103959;277;38363;-74
2023/05/28 07:14:44;;;;;;;2.80;1.30;;;;;;;28.94;19.41;101206.38;103951;277;38356;-74
2023/05/28 07:17:23;;;;;;;6.20;1.30;;;;;;;28.69;19.61;101209.37;103944;266;38597;-74
2023/05/28 07:19:58;;;;;;;2.30;1.20;;;;;;;28.55;19.42;101207.79;103960;277;38776;-72
2023/05/28 07:22:35;;;;;;;6.00;2.10;;;;;;;28.22;19.38;101204.76;103347;277;889162;-72
2023/05/28 07:25:10;;;;;;;3.70;1.30;;;;;;;28.20;19.49;101204.14;103951;277;38264;-73
2023/05/28 07:27:47;;;;;;;5.10;1.10;;;;;;;28.22;19.14;101206.97;103993;277;38705;-73
2023/05/28 07:30:27;;;;;;;3.40;1.10;;;;;;;28.11;18.77;101207.13;103971;277;38540;-71
2023/05/28 07:33:01;;;;;;;2.70;0.90;;;;;;;28.08;19.03;101204.83;103970;277;38370;-71
2023/05/28 07:35:39;;;;;;;2.70;1.10;;;;;;;28.17;18.66;101201.52;104019;277;38716;-72
2023/05/28 07:38:21;;;;;;;3.30;0.90;;;;;;;28.24;19.08;101201.02;104013;277;38311;-71
2023/05/28 07:41:00;;;;;;;2.70;1.00;;;;;;;28.53;19.00;101205.67;103873;278;38776;-72
2023/05/28 07:43:38;;;;;;;4.10;1.20;;;;;;;28.75;18.62;101203.20;103961;277;39520;-71
2023/05/28 07:46:12;;;;;;;4.10;1.20;;;;;;;28.87;18.24;101197.01;103974;277;39455;-74
2023/05/28 07:48:46;;;;;;;2.90;1.20;;;;;;;28.75;18.24;101193.21;103970;277;38279;-72
2023/05/28 07:51:21;;;;;;;3.50;1.40;;;;;;;28.86;17.99;101185.32;103997;277;38406;-74
2023/05/28 07:53:55;;;;;;;5.30;1.10;;;;;;;28.84;18.58;101185.48;103964;277;39017;-73
2023/05/28 07:56:30;;;;;;;2.50;0.80;;;;;;;28.82;17.50;101183.16;104017;277;38700;-71
2023/05/28 07:59:04;;;;;;;3.00;1.00;;;;;;;28.69;17.74;101179.77;103952;277;38436;-73
2023/05/28 08:01:38;;;;;;;2.40;1.00;;;;;;;28.69;17.61;101183.17;104008;277;38512;-74
2023/05/28 08:04:13;;;;;;;3.30;0.90;;;;;;;28.82;17.73;101182.99;103910;277;38456;-72
2023/05/28 08:06:51;;;;;;;2.90;1.10;;;;;;;29.06;17.53;101186.66;103964;277;39915;-72
2023/05/28 08:09:27;;;;;;;;;;;;;;;29.25;17.06;101178.69;103988;277;38236;-71
2023/05/28 08:12:02;;;;;;;2.80;0.70;;;;;;;29.26;17.78;101179.70;104000;277;39749;-72
2023/05/28 08:14:43;;;;;;;2.60;0.80;;;;;;;29.66;17.25;101178.40;103970;277;39653;-77
2023/05/28 08:17:15;;;;;;;;;;;;;;;29.70;16.62;101175.11;104003;277;39434;-74
2023/05/28 08:19:50;;;;;;;5.10;0.90;;;;;;;29.39;16.64;101173.13;103994;277;38253;-72
2023/05/28 08:22:24;;;;;;;5.00;1.50;;;;;;;29.48;17.33;101171.40;103964;277;40007;-73
2023/05/28 08:24:59;;;;;;;1.50;0.80;;;;;;;29.68;17.13;101171.36;104023;277;38260;-71
2023/05/28 08:27:37;;;;;;;4.20;1.10;;;;;;;29.90;17.01;101174.54;103861;277;38341;-79
2023/05/28 08:30:18;;;;;;;3.50;0.80;;;;;;;30.24;17.06;101167.17;104007;277;38906;-77
2023/05/28 08:32:56;;;;;;;2.60;1.00;;;;;;;30.43;17.52;101162.86;103868;277;39680;-76
2023/05/28 08:35:35;;;;;;;2.90;1.10;;;;;;;30.66;16.84;101162.19;103982;277;38414;-76
2023/05/28 08:38:10;;;;;;;2.10;0.80;;;;;;;30.97;17.49;101165.52;103953;277;39446;-78
2023/05/28 08:41:02;;;;;;;3.70;0.90;;;;;;;31.14;16.24;101159.91;104000;277;38429;-76
2023/05/28 08:43:41;;;;;;;2.80;1.00;;;;;;;31.15;16.49;101160.61;103818;277;38576;-77
2023/05/28 08:46:34;;;;;;;2.80;0.90;;;;;;;31.20;16.74;101152.84;104078;277;38387;-78
2023/05/28 08:49:18;;;;;;;4.50;0.90;;;;;;;31.31;16.44;101155.39;103837;277;38236;-77
2023/05/28 08:51:58;;;;;;;2.20;1.10;;;;;;;31.41;15.80;101153.23;104014;266;39453;-77
2023/05/28 08:54:37;;;;;;;5.00;0.90;;;;;;;31.39;15.85;101156.36;104047;277;38264;-75
2023/05/28 08:57:20;;;;;;;3.30;1.00;;;;;;;31.16;15.62;101148.94;104149;277;39871;-78
2023/05/28 09:00:06;;;;;;;2.40;0.90;;;;;;;31.00;15.95;101145.04;104027;277;38232;-76
2023/05/28 09:02:44;;;;;;;2.80;1.00;;;;;;;30.90;16.16;101144.14;104029;277;39588;-77
2023/05/28 09:05:27;;;;;;;5.00;0.90;;;;;;;30.59;15.80;101146.66;103888;277;39502;-77
2023/05/28 09:08:09;;;;;;;2.70;1.00;;;;;;;30.23;16.53;101140.54;104060;277;38260;-77
2023/05/28 09:10:49;;;;;;;6.60;1.10;;;;;;;30.06;17.50;101136.28;103978;277;39365;-77
2023/05/28 09:13:34;;;;;;;3.10;0.90;;;;;;;30.10;17.54;101136.75;103983;277;40104;-77
2023/05/28 09:16:16;;;;;;;3.60;1.10;;;;;;;29.90;16.92;101138.04;103957;277;39625;-77
2023/05/28 09:19:05;;;;;;;2.80;0.80;;;;;;;29.54;17.15;101135.19;103990;277;38254;-77
2023/05/28 09:21:59;;;;;;;5.00;1.00;;;;;;;29.01;17.62;101144.38;103832;277;38574;-73
2023/05/28 09:24:34;;;;;;;2.50;0.80;;;;;;;28.55;17.74;101135.46;103908;265;39433;-73
2023/05/28 09:27:17;;;;;;;2.30;0.80;;;;;;;28.31;18.15;101127.97;103899;277;38685;-72
2023/05/28 09:29:54;;;;;;;3.20;0.90;;;;;;;28.19;18.58;101129.54;103918;277;38503;-72
2023/05/28 09:32:33;;;;;;;2.90;1.00;;;;;;;28.01;18.13;101125.13;103933;277;39454;-73
2023/05/28 09:35:08;;;;;;;3.30;1.10;;;;;;;27.83;18.65;101124.80;103903;277;38911;-73
2023/05/28 09:37:47;;;;;;;3.70;1.10;;;;;;;27.63;19.17;101121.54;103893;277;38802;-74
2023/05/28 09:40:25;;;;;;;3.20;1.10;;;;;;;27.49;19.57;101120.53;103862;277;39902;-72
2023/05/28 09:43:05;;;;;;;2.40;1.00;;;;;;;27.42;19.29;101116.55;103869;277;40167;-73
2023/05/28 09:45:41;;;;;;;1.50;0.90;;;;;;;27.33;19.04;101108.70;103909;277;39014;-73
2023/05/28 09:48:15;;;;;;;2.10;1.30;;;;;;;27.13;18.99;101105.39;103875;277;39736;-73
2023/05/28 09:50:49;;;;;;;5.10;1.20;;;;;;;26.78;19.07;101098.58;103906;277;38665;-73
2023/05/28 09:53:23;;;;;;;2.70;1.00;;;;;;;26.37;20.26;101095.05;103806;277;38376;-73
2023/05/28 09:55:57;;;;;;;1.60;0.90;;;;;;;25.92;19.85;101096.09;103966;277;38369;-73
2023/05/28 09:58:36;;;;;;;3.80;1.10;;;;;;;25.59;20.16;101089.78;103930;277;38219;-74
2023/05/28 10:01:14;;;;;;;3.90;1.20;;;;;;;25.40;21.10;101094.36;103936;277;38655;-74
2023/05/28 10:03:47;;;;;;;;;;;;;;;25.27;20.76;101091.09;103825;277;174279;-74
2023/05/28 10:06:29;;;;;;;2.50;1.20;;;;;;;25.20;21.05;101092.23;103918;277;38517;-73
2023/05/28 10:09:06;;;;;;;3.60;1.10;;;;;;;25.28;20.83;101096.17;103907;277;38794;-73
2023/05/28 10:11:45;;;;;;;3.50;1.10;;;;;;;25.16;20.47;101089.68;103910;277;38454;-73
2023/05/28 10:14:21;;;;;;;3.40;1.00;;;;;;;25.03;20.86;101089.60;103944;277;39843;-73
2023/05/28 10:16:59;;;;;;;1.60;0.80;;;;;;;24.98;21.13;101082.19;103923;277;40151;-72
2023/05/28 10:19:38;;;;;;;;;;;;;;;24.83;21.63;101084.56;103828;277;174547;-72
2023/05/28 10:22:16;;;;;;;3.90;1.20;;;;;;;24.87;21.64;101085.43;103933;277;38243;-73
2023/05/28 10:24:50;;;;;;;2.10;1.20;;;;;;;24.80;21.34;101081.77;103815;278;39642;-73
2023/05/28 10:27:31;;;;;;;4.80;1.20;;;;;;;24.56;21.79;101077.44;103887;270;38294;-73
2023/05/28 10:30:08;;;;;;;4.30;1.00;;;;;;;24.49;21.89;101078.92;103884;277;39924;-71
2023/05/28 10:32:45;;;;;;;3.20;0.90;;;;;;;24.52;22.07;101070.27;103942;277;38496;-73
2023/05/28 10:35:20;;;;;;;2.30;1.10;;;;;;;24.49;22.75;101069.10;103268;277;896760;-73
2023/05/28 10:38:06;;;;;;;3.00;1.20;;;;;;;24.56;22.07;101064.73;103963;277;39170;-73
2023/05/28 10:40:45;;;;;;;2.40;1.30;;;;;;;24.52;22.20;101068.52;103905;277;38282;-74
2023/05/28 10:43:46;;;;;;;3.00;1.20;;;;;;;24.50;22.06;101062.92;103804;277;174594;-72
2023/05/28 10:46:27;;;;;;;2.00;0.90;;;;;;;24.31;22.93;101062.90;103743;277;38494;-73
2023/05/28 10:49:19;;;;;;;3.20;1.40;;;;;;;24.37;23.23;101060.52;103916;277;39876;-72
2023/05/28 10:52:14;;;;;;;3.90;1.10;;;;;;;24.45;22.26;101055.53;103944;277;39477;-72
2023/05/28 10:54:55;;;;;;;2.80;1.10;;;;;;;24.41;22.50;101051.17;103983;277;38268;-72
2023/05/28 10:57:31;;;;;;;5.30;1.20;;;;;;;24.41;22.59;101051.23;103886;277;38726;-73
2023/05/28 11:00:13;;;;;;;2.50;1.20;;;;;;;24.40;22.83;101051.52;103919;277;38683;-73
2023/05/28 11:02:54;;;;;;;3.80;1.10;;;;;;;24.36;22.85;101044.48;103801;277;38602;-70
2023/05/28 11:05:28;;;;;;;3.30;0.90;;;;;;;24.30;23.07;101043.18;103924;277;38803;-72
2023/05/28 11:08:03;;;;;;;5.90;2.30;;;;;;;24.27;23.10;101040.28;103914;277;38784;-72
2023/05/28 11:10:37;;;;;;;5.60;3.00;;;;;;;24.23;23.28;101040.77;103913;277;38518;-72
2023/05/28 11:13:11;;;;;;;7.20;6.00;;;;;;;24.22;23.47;101045.56;103287;277;896996;-73
2023/05/28 11:15:50;;;;;;;6.40;3.90;;;;;;;24.14;23.52;101042.28;103943;277;39399;-73
2023/05/28 11:18:24;;;;;;;;;;;;;;;24.07;23.74;101036.63;103943;277;39977;-72
2023/05/28 11:21:12;;;;;;;2.70;1.20;;;;;;;24.00;24.14;101031.32;103991;277;39831;-74
2023/05/28 11:24:02;;;;;;;4.70;1.30;;;;;;;24.04;25.08;101034.05;103974;277;38271;-73
2023/05/28 11:26:39;;;;;;;1.60;1.10;;;;;;;23.99;23.71;101027.66;103989;277;38483;-73
2023/05/28 11:29:16;;;;;;;5.10;2.20;;;;;;;23.77;23.84;101029.70;103949;277;38445;-73
2023/05/28 11:31:50;;;;;;;6.40;1.50;;;;;;;23.66;23.54;101024.49;103981;277;38548;-72
2023/05/28 11:34:25;;;;;;;5.40;3.00;;;;;;;23.59;23.28;101026.88;103966;277;38455;-71
2023/05/28 11:37:01;;;;;;;5.10;2.40;;;;;;;23.34;23.01;101028.14;103723;277;41330;-72
2023/05/28 11:39:39;;;;;;;2.90;1.50;;;;;;;23.17;23.27;101027.59;103936;277;38259;-73
2023/05/28 11:42:13;;;;;;;5.10;2.30;;;;;;;23.11;23.26;101024.91;104029;277;38446;-74
2023/05/28 11:44:50;;;;;;;3.40;1.60;;;;;;;23.05;23.11;101026.81;103982;277;38343;-73
2023/05/28 11:47:35;;;;;;;2.30;1.50;;;;;;;22.95;23.29;101019.95;103969;277;38364;-73
2023/05/28 11:50:20;;;;;;;3.90;1.40;;;;;;;22.87;23.73;101013.41;103979;277;38347;-71
2023/05/28 11:52:59;;;;;;;2.60;1.30;;;;;;;22.87;24.01;101018.45;103552;277;588444;-73
2023/05/28 11:55:34;;;;;;;8.50;2.60;;;;;;;22.82;23.90;101013.69;104004;277;38228;-72
2023/05/28 11:58:08;;;;;;;3.60;1.10;;;;;;;22.75;24.02;101019.73;103915;277;38229;-73
2023/05/28 12:00:49;;;;;;;4.80;1.30;;;;;;;22.63;23.92;101014.74;103979;277;38225;-72
2023/05/28 12:03:24;;;;;;;1.70;1.30;;;;;;;22.58;24.30;101018.94;103960;277;38338;-69
2023/05/28 12:06:02;;;;;;;6.80;1.40;;;;;;;22.56;24.10;101015.54;103933;277;39615;-73
2023/05/28 12:08:53;;;;;;;2.60;1.60;;;;;;;22.53;24.06;101010.27;103989;277;38226;-73
2023/05/28 12:11:31;;;;;;;5.50;1.50;;;;;;;22.42;24.38;101008.10;104014;277;38446;-73